Time;durP1;ratioP1;P1;durP2;ratioP2;P2;SDS_P1;SDS_P2;PMS_P1;PMS_P2;Temp;Humidity;BMP_temperature;BMP_pressure;BME280_temperature;BME280_humidity;BME280_pressure;Samples;Min_cycle;Max_cycle;Signal;HPM_P1;HPM_P2
2021/01/24 00:02:22;;;;;;;15.40;11.43;;;;;;;2.31;100.00;98773.69;5092073;28;20241;-71
2021/01/24 00:04:47;;;;;;;14.23;10.70;;;;;;;2.31;100.00;98768.34;5059291;28;20676;-71
2021/01/24 00:07:13;;;;;;;18.97;14.03;;;;;;;2.20;100.00;98769.41;5074674;28;20222;-71
2021/01/24 00:09:39;;;;;;;16.37;13.40;;;;;;;2.19;100.00;98765.09;5075775;28;20200;-71
2021/01/24 00:12:05;;;;;;;13.37;10.73;;;;;;;2.33;100.00;98758.19;5057144;28;20218;-71
2021/01/24 00:14:33;;;;;;;15.67;11.13;;;;;;;2.35;100.00;98754.16;5059539;28;20187;-71
2021/01/24 00:16:59;;;;;;;16.00;11.10;;;;;;;2.34;100.00;98746.38;5075038;28;20225;-71
2021/01/24 00:19:24;;;;;;;17.30;11.70;;;;;;;2.36;100.00;98749.59;5059343;28;20182;-70
2021/01/24 00:21:52;;;;;;;16.33;11.90;;;;;;;2.13;100.00;98755.47;5091800;28;20804;-71
2021/01/24 00:24:20;;;;;;;15.17;11.60;;;;;;;2.09;100.00;98767.75;5075637;28;20182;-71
2021/01/24 00:26:48;;;;;;;14.13;10.43;;;;;;;1.90;100.00;98778.41;5058471;28;20279;-70
2021/01/24 00:29:14;;;;;;;13.67;10.70;;;;;;;1.73;100.00;98770.59;5075686;28;20331;-71
2021/01/24 00:31:40;;;;;;;16.73;10.50;;;;;;;1.71;100.00;98777.28;5071277;28;20229;-71
2021/01/24 00:34:05;;;;;;;15.30;10.43;;;;;;;1.61;100.00;98783.38;5078993;28;20540;-71
2021/01/24 00:36:33;;;;;;;14.00;10.23;;;;;;;1.61;100.00;98778.03;5112076;28;20221;-70
2021/01/24 00:38:59;;;;;;;15.57;10.83;;;;;;;1.80;100.00;98783.72;5087594;28;20559;-71
2021/01/24 00:41:29;;;;;;;12.97;10.30;;;;;;;1.72;100.00;98789.56;5103592;28;20209;-71
2021/01/24 00:43:57;;;;;;;14.83;10.77;;;;;;;1.59;100.00;98790.03;5096186;28;20184;-71
2021/01/24 00:46:22;;;;;;;14.20;10.43;;;;;;;1.75;100.00;98783.72;5094731;28;20229;-71
2021/01/24 00:48:48;;;;;;;16.60;11.63;;;;;;;1.81;100.00;98782.66;5095614;28;20201;-71
2021/01/24 00:51:14;;;;;;;16.80;11.90;;;;;;;1.79;100.00;98774.09;5077868;28;20275;-71
2021/01/24 00:53:39;;;;;;;15.37;12.23;;;;;;;1.67;100.00;98786.88;5112681;28;20585;-70
2021/01/24 00:56:06;;;;;;;16.07;11.83;;;;;;;1.53;100.00;98781.19;5111180;28;20213;-71
2021/01/24 00:58:32;;;;;;;18.10;13.63;;;;;;;1.42;100.00;98776.06;5113598;28;20328;-71
2021/01/24 01:00:57;;;;;;;17.40;12.77;;;;;;;1.50;100.00;98780.91;5077821;28;20715;-71
2021/01/24 01:03:25;;;;;;;15.93;12.20;;;;;;;1.31;100.00;98786.97;5077846;28;20188;-71
2021/01/24 01:05:53;;;;;;;17.37;12.93;;;;;;;1.48;100.00;98783.03;5077202;28;20217;-71
2021/01/24 01:08:19;;;;;;;19.13;12.83;;;;;;;1.60;100.00;98780.97;5092180;28;20284;-71
2021/01/24 01:10:45;;;;;;;21.37;14.40;;;;;;;1.63;100.00;98775.06;5058487;28;20214;-71
2021/01/24 01:13:11;;;;;;;23.77;14.83;;;;;;;1.69;100.00;98774.84;5111774;28;20181;-71
2021/01/24 01:15:36;;;;;;;18.97;13.03;;;;;;;1.81;100.00;98769.28;5093873;28;20228;-71
2021/01/24 01:18:02;;;;;;;21.63;14.63;;;;;;;1.79;100.00;98768.72;5078184;28;20219;-71
2021/01/24 01:20:28;;;;;;;21.00;13.70;;;;;;;1.92;100.00;98769.88;5111349;28;20228;-71
2021/01/24 01:22:54;;;;;;;19.00;13.60;;;;;;;1.97;100.00;98764.50;5112092;28;20193;-71
2021/01/24 01:25:19;;;;;;;17.17;12.07;;;;;;;2.00;100.00;98764.00;5077434;28;20193;-71
2021/01/24 01:27:51;;;;;;;18.83;12.80;;;;;;;2.15;100.00;98750.63;5112275;28;20277;-71
2021/01/24 01:30:17;;;;;;;19.97;12.23;;;;;;;2.15;100.00;98756.00;5078880;28;20280;-71
2021/01/24 01:32:45;;;;;;;18.90;12.93;;;;;;;2.18;100.00;98747.44;5112308;28;20182;-71
2021/01/24 01:35:11;;;;;;;16.33;12.40;;;;;;;2.19;100.00;98750.91;5078129;28;20259;-71
2021/01/24 01:37:36;;;;;;;18.33;13.03;;;;;;;2.15;100.00;98745.28;5096139;28;20300;-71
2021/01/24 01:40:04;;;;;;;18.67;12.67;;;;;;;2.23;100.00;98739.41;5084381;28;20204;-71
2021/01/24 01:42:32;;;;;;;15.50;12.10;;;;;;;2.32;100.00;98737.81;5104905;28;20228;-71
2021/01/24 01:44:58;;;;;;;16.50;11.40;;;;;;;2.23;100.00;98730.56;5094823;28;20181;-71
2021/01/24 01:47:24;;;;;;;15.87;11.83;;;;;;;2.21;100.00;98728.16;5110760;28;20241;-71
2021/01/24 01:49:53;;;;;;;17.73;12.10;;;;;;;2.27;100.00;98734.31;5077791;28;20554;-71
2021/01/24 01:52:19;;;;;;;16.93;11.67;;;;;;;2.23;100.00;98733.25;5110766;28;20251;-70
2021/01/24 01:54:47;;;;;;;14.00;10.90;;;;;;;2.23;100.00;98733.25;5076837;28;20185;-71
2021/01/24 01:57:12;;;;;;;16.63;11.97;;;;;;;2.27;100.00;98732.44;5110466;28;20686;-71
2021/01/24 01:59:38;;;;;;;15.50;11.50;;;;;;;2.31;100.00;98741.56;5111120;28;20192;-71
2021/01/24 02:02:52;;;;;;;17.33;11.53;;;;;;;2.30;100.00;98734.59;5059773;28;20733;-71
2021/01/24 02:05:22;;;;;;;16.40;11.87;;;;;;;2.30;100.00;98740.75;5035379;28;20691;-71
2021/01/24 02:08:09;;;;;;;17.43;12.67;;;;;;;2.29;100.00;98733.00;5105855;28;20297;-71
2021/01/24 02:10:39;;;;;;;18.57;11.80;;;;;;;2.26;100.00;98744.22;5095084;28;20222;-71
2021/01/24 02:13:16;;;;;;;20.17;11.93;;;;;;;2.22;100.00;98739.69;5093132;28;20711;-71
2021/01/24 02:15:42;;;;;;;16.70;12.30;;;;;;;2.26;100.00;98738.88;5076611;28;20221;-72
2021/01/24 02:18:12;;;;;;;15.90;12.00;;;;;;;2.38;100.00;98736.72;5094517;28;20334;-71
2021/01/24 02:20:45;;;;;;;17.30;12.43;;;;;;;2.29;100.00;98731.13;5076558;28;20274;-71
2021/01/24 02:23:14;;;;;;;19.23;12.63;;;;;;;2.44;100.00;98730.34;5093975;28;20189;-71
2021/01/24 02:26:09;;;;;;;16.60;12.43;;;;;;;2.46;100.00;98734.34;5076767;28;20224;-71
2021/01/24 02:28:53;;;;;;;18.20;12.40;;;;;;;2.51;100.00;98737.03;5093797;28;20801;-71
2021/01/24 02:31:22;;;;;;;17.20;12.00;;;;;;;2.56;100.00;98744.25;5093497;28;20689;-71
2021/01/24 02:33:48;;;;;;;17.37;12.93;;;;;;;2.64;100.00;98741.03;5076746;28;20189;-71
2021/01/24 02:36:16;;;;;;;20.47;12.90;;;;;;;2.56;100.00;98738.88;5076138;28;20225;-71
2021/01/24 02:38:44;;;;;;;16.27;12.23;;;;;;;2.62;100.00;98748.53;5070453;28;20211;-71
2021/01/24 02:41:10;;;;;;;18.47;12.20;;;;;;;2.67;100.00;98739.44;5058053;28;20205;-72
2021/01/24 02:43:36;;;;;;;15.87;11.93;;;;;;;2.65;100.00;98742.66;5076468;28;20242;-71
2021/01/24 02:46:02;;;;;;;17.73;12.50;;;;;;;2.65;100.00;98742.66;5092933;28;20287;-71
2021/01/24 02:48:27;;;;;;;17.30;11.90;;;;;;;2.71;100.00;98743.19;5060249;28;20190;-71
2021/01/24 02:50:55;;;;;;;15.40;11.60;;;;;;;2.68;100.00;98743.72;5076883;28;20713;-71
2021/01/24 02:53:20;;;;;;;16.33;12.10;;;;;;;2.73;100.00;98748.28;5093840;28;20170;-71
2021/01/24 02:55:46;;;;;;;16.20;12.33;;;;;;;2.71;100.00;98753.91;5075712;28;20225;-71
2021/01/24 02:58:14;;;;;;;16.27;11.40;;;;;;;2.74;100.00;98753.34;5059830;28;20213;-70
2021/01/24 03:00:43;;;;;;;16.03;11.40;;;;;;;2.83;100.00;98756.31;5076644;28;20217;-71
2021/01/24 03:03:11;;;;;;;15.47;11.47;;;;;;;2.79;100.00;98745.31;5111771;28;20182;-71
2021/01/24 03:05:37;;;;;;;15.80;12.23;;;;;;;2.80;100.00;98746.94;5076722;28;20213;-71
2021/01/24 03:08:02;;;;;;;16.70;11.17;;;;;;;2.78;100.00;98751.75;5077156;28;20198;-71
2021/01/24 03:10:28;;;;;;;15.20;11.47;;;;;;;2.89;100.00;98753.34;5075726;28;20229;-71
2021/01/24 03:13:06;;;;;;;14.93;11.67;;;;;;;2.89;100.00;98747.97;5104999;28;20567;-71
2021/01/24 03:15:32;;;;;;;14.30;10.67;;;;;;;2.93;100.00;98749.06;5089737;28;20308;-71
2021/01/24 03:17:58;;;;;;;15.07;11.73;;;;;;;2.95;100.00;98746.09;5076831;28;20208;-71
2021/01/24 03:20:24;;;;;;;15.70;11.20;;;;;;;2.94;100.00;98758.69;5076397;28;20543;-71
2021/01/24 03:22:50;;;;;;;12.97;10.77;;;;;;;2.85;100.00;98754.16;5093596;28;20182;-71
2021/01/24 03:25:15;;;;;;;15.37;11.03;;;;;;;2.93;100.00;98745.56;5092856;28;20222;-71
2021/01/24 03:27:41;;;;;;;14.00;10.87;;;;;;;2.88;100.00;98743.72;5080369;28;20192;-71
2021/01/24 03:30:11;;;;;;;13.97;10.70;;;;;;;2.87;100.00;98746.66;5080731;27;20370;-71
2021/01/24 03:32:42;;;;;;;11.80;10.27;;;;;;;2.90;100.00;98740.75;5064726;28;20184;-71
2021/01/24 03:35:11;;;;;;;12.10;9.97;;;;;;;2.91;100.00;98742.34;5079320;28;20198;-71
2021/01/24 03:37:36;;;;;;;15.97;10.90;;;;;;;3.00;100.00;98741.53;5114117;28;20669;-71
2021/01/24 03:40:03;;;;;;;14.37;11.27;;;;;;;3.02;100.00;98742.06;5103420;28;20264;-71
2021/01/24 03:42:28;;;;;;;13.33;10.47;;;;;;;2.97;100.00;98736.72;5089601;28;20213;-71
2021/01/24 03:44:55;;;;;;;11.90;10.07;;;;;;;2.99;100.00;98734.56;5096323;28;20251;-71
2021/01/24 03:47:20;;;;;;;13.50;10.17;;;;;;;3.03;100.00;98732.16;5079119;28;20759;-71
2021/01/24 03:49:46;;;;;;;12.77;10.33;;;;;;;2.99;100.00;98734.56;5113974;28;20205;-71
2021/01/24 03:52:14;;;;;;;13.00;9.67;;;;;;;2.98;100.00;98741.00;5096246;28;20227;-71
2021/01/24 03:54:42;;;;;;;12.10;9.87;;;;;;;3.03;100.00;98730.28;5096058;28;20213;-71
2021/01/24 03:57:10;;;;;;;14.17;10.27;;;;;;;2.92;100.00;98728.69;5096285;28;20267;-71
2021/01/24 03:59:38;;;;;;;14.80;10.63;;;;;;;2.91;100.00;98731.63;5096977;28;20178;-71
2021/01/24 04:02:03;;;;;;;14.43;10.63;;;;;;;2.84;100.00;98731.09;5079615;28;20698;-71
2021/01/24 04:04:29;;;;;;;14.63;10.53;;;;;;;2.71;100.00;98732.47;5112997;28;20177;-71
2021/01/24 04:06:57;;;;;;;14.33;10.77;;;;;;;2.81;100.00;98732.44;5095635;28;20217;-71
2021/01/24 04:09:23;;;;;;;19.10;12.00;;;;;;;2.83;100.00;98729.50;5104854;28;20754;-71
2021/01/24 04:11:48;;;;;;;14.27;10.80;;;;;;;2.84;100.00;98723.88;5087167;28;20278;-71
2021/01/24 04:14:16;;;;;;;14.23;11.13;;;;;;;2.87;100.00;98722.53;5079036;28;20558;-71
2021/01/24 04:16:42;;;;;;;13.27;11.07;;;;;;;2.82;100.00;98719.84;5096060;28;20325;-71
2021/01/24 04:19:08;;;;;;;14.73;11.00;;;;;;;2.88;100.00;98716.91;5062748;28;20201;-71
2021/01/24 04:21:36;;;;;;;15.13;10.63;;;;;;;2.87;100.00;98720.66;5095180;28;20267;-72
2021/01/24 04:24:04;;;;;;;12.47;10.47;;;;;;;2.81;100.00;98708.34;5079720;28;20182;-71
2021/01/24 04:26:30;;;;;;;13.43;10.67;;;;;;;2.88;100.00;98716.09;5095008;28;20232;-72
2021/01/24 04:28:55;;;;;;;13.13;10.30;;;;;;;2.83;100.00;98703.50;5096134;28;20194;-71
2021/01/24 04:31:23;;;;;;;13.33;10.30;;;;;;;2.84;100.00;98699.75;5095096;28;20213;-71
2021/01/24 04:33:54;;;;;;;13.40;10.27;;;;;;;2.80;100.00;98704.06;5112988;28;20178;-71
2021/01/24 04:36:24;;;;;;;12.63;10.60;;;;;;;2.80;100.00;98698.69;5111601;28;20221;-71
2021/01/24 04:38:50;;;;;;;14.23;10.73;;;;;;;2.81;100.00;98704.84;5103171;28;20267;-72
2021/01/24 04:41:16;;;;;;;13.40;10.00;;;;;;;2.68;100.00;98706.19;5078181;28;20210;-71
2021/01/24 04:43:41;;;;;;;14.37;10.33;;;;;;;2.75;100.00;98700.59;5112649;28;20546;-71
2021/01/24 04:46:07;;;;;;;12.53;9.77;;;;;;;2.88;100.00;98700.81;5077944;28;20224;-72
2021/01/24 04:48:37;;;;;;;12.70;9.97;;;;;;;2.90;100.00;98698.66;5079749;28;20232;-70
2021/01/24 04:51:04;;;;;;;13.60;10.00;;;;;;;2.85;100.00;98704.03;5061574;28;20220;-71
2021/01/24 04:53:30;;;;;;;12.23;9.87;;;;;;;2.71;100.00;98689.59;5078803;28;20275;-71
2021/01/24 04:55:55;;;;;;;12.47;9.80;;;;;;;2.83;100.00;98702.72;5077260;28;20229;-71
2021/01/24 04:58:21;;;;;;;10.90;9.73;;;;;;;2.87;100.00;98695.72;5078520;28;20228;-71
2021/01/24 05:00:46;;;;;;;13.43;9.73;;;;;;;2.95;100.00;98685.28;5077762;28;20217;-71
2021/01/24 05:03:12;;;;;;;12.87;9.90;;;;;;;3.04;100.00;98688.19;5078340;28;20234;-71
2021/01/24 05:05:44;;;;;;;12.60;10.03;;;;;;;3.08;100.00;98685.50;5094752;28;20220;-71
2021/01/24 05:08:15;;;;;;;13.10;10.53;;;;;;;3.08;100.00;98684.69;5094543;28;20325;-71
2021/01/24 05:10:43;;;;;;;13.57;9.93;;;;;;;3.05;100.00;98682.56;5084208;28;20239;-71
2021/01/24 05:13:08;;;;;;;12.80;9.83;;;;;;;3.05;100.00;98690.59;5072256;28;20181;-71
2021/01/24 05:15:35;;;;;;;12.07;9.40;;;;;;;3.04;100.00;98688.19;5070298;28;20227;-71
2021/01/24 05:18:01;;;;;;;12.70;10.30;;;;;;;2.99;100.00;98691.69;5054707;28;20209;-71
2021/01/24 05:20:31;;;;;;;13.30;9.93;;;;;;;3.11;100.00;98700.22;5037669;28;20218;-72
2021/01/24 05:22:57;;;;;;;13.20;9.63;;;;;;;3.24;100.00;98702.31;5055066;28;20691;-71
2021/01/24 05:25:24;;;;;;;13.33;10.07;;;;;;;3.19;100.00;98697.78;5070901;28;20633;-71
2021/01/24 05:27:50;;;;;;;11.90;9.40;;;;;;;3.05;100.00;98704.78;5071596;28;20202;-71
2021/01/24 05:30:42;;;;;;;10.60;8.97;;;;;;;3.00;100.00;98698.63;5071064;28;20167;-71
2021/01/24 05:33:07;;;;;;;10.90;8.83;;;;;;;3.01;100.00;98700.25;5053419;28;20219;-71
2021/01/24 05:35:35;;;;;;;11.60;9.10;;;;;;;2.95;100.00;98704.03;5054394;28;20238;-71
2021/01/24 05:38:00;;;;;;;11.63;8.97;;;;;;;3.05;100.00;98712.03;5054492;28;20656;-71
2021/01/24 05:40:31;;;;;;;10.67;9.17;;;;;;;3.14;100.00;98710.41;5094799;28;20226;-71
2021/01/24 05:42:57;;;;;;;11.93;9.10;;;;;;;3.01;100.00;98715.56;5075224;28;20186;-71
2021/01/24 05:45:22;;;;;;;12.30;9.53;;;;;;;3.07;100.00;98712.56;5076530;28;20221;-71
2021/01/24 05:47:48;;;;;;;11.50;8.87;;;;;;;3.16;100.00;98708.25;5094488;28;20263;-71
2021/01/24 05:50:15;;;;;;;12.63;9.77;;;;;;;3.16;100.00;98713.63;5076531;28;20221;-71
2021/01/24 05:52:41;;;;;;;11.97;9.67;;;;;;;3.21;100.00;98716.31;5111468;28;20174;-71
2021/01/24 05:55:10;;;;;;;13.03;9.90;;;;;;;3.09;100.00;98718.47;5076372;28;20209;-71
2021/01/24 05:57:37;;;;;;;12.40;9.73;;;;;;;3.00;100.00;98713.94;5111404;28;20229;-71
2021/01/24 06:00:04;;;;;;;12.90;10.70;;;;;;;3.05;100.00;98719.28;5095030;28;20181;-71
2021/01/24 06:02:30;;;;;;;12.40;9.97;;;;;;;2.97;100.00;98728.69;5111514;28;20270;-71
2021/01/24 06:04:56;;;;;;;14.50;9.97;;;;;;;3.03;100.00;98730.28;5077573;28;20658;-71
2021/01/24 06:07:21;;;;;;;12.67;10.27;;;;;;;3.06;100.00;98729.75;5093874;28;20601;-71
2021/01/24 06:09:47;;;;;;;14.77;9.77;;;;;;;3.13;100.00;98725.72;5089684;28;20192;-71
2021/01/24 06:12:20;;;;;;;10.80;9.53;;;;;;;3.19;100.00;98734.53;5057448;28;20233;-71
2021/01/24 06:14:49;;;;;;;14.03;10.20;;;;;;;3.18;100.00;98738.28;5073489;28;20662;-71
2021/01/24 06:17:37;;;;;;;13.37;9.77;;;;;;;3.02;100.00;98747.41;5073236;28;20225;-71
2021/01/24 06:20:05;;;;;;;14.77;10.10;;;;;;;2.92;100.00;98744.78;5074176;28;20182;-71
2021/01/24 06:23:07;;;;;;;12.80;10.43;;;;;;;2.92;100.00;98757.38;5073023;28;20596;-71
2021/01/24 06:25:37;;;;;;;12.93;10.47;;;;;;;2.86;100.00;98759.25;5087748;28;20350;-70
2021/01/24 06:28:20;;;;;;;13.97;11.00;;;;;;;2.90;100.00;98763.00;5057366;28;20461;-71
2021/01/24 06:30:49;;;;;;;12.97;10.37;;;;;;;2.78;100.00;98773.19;5073008;28;20335;-71
2021/01/24 06:33:17;;;;;;;13.60;10.77;;;;;;;2.79;100.00;98761.41;5074349;28;20205;-71
2021/01/24 06:35:46;;;;;;;11.93;10.00;;;;;;;2.88;100.00;98770.50;5072870;28;20259;-71
2021/01/24 06:38:25;;;;;;;13.03;10.73;;;;;;;2.91;100.00;98772.66;5090428;28;20197;-71
2021/01/24 06:40:51;;;;;;;13.00;10.47;;;;;;;2.81;100.00;98769.97;5053266;28;20222;-71
2021/01/24 06:43:40;;;;;;;13.13;11.47;;;;;;;2.78;100.00;98775.88;5073310;28;20189;-71
2021/01/24 06:46:32;;;;;;;15.37;11.33;;;;;;;3.11;100.00;98775.28;5058119;28;20225;-71
2021/01/24 06:48:59;;;;;;;13.27;10.70;;;;;;;3.07;100.00;98779.59;5073440;28;20221;-71
2021/01/24 06:51:39;;;;;;;15.90;11.40;;;;;;;3.07;100.00;98782.28;5056875;28;20221;-71
2021/01/24 06:54:06;;;;;;;14.27;11.17;;;;;;;3.23;100.00;98783.88;5073538;28;20197;-71
2021/01/24 06:56:36;;;;;;;13.47;10.50;;;;;;;3.25;100.00;98795.13;5089386;28;20226;-72
2021/01/24 06:59:01;;;;;;;14.93;11.40;;;;;;;3.17;100.00;98791.13;5057083;28;20773;-71
2021/01/24 07:01:31;;;;;;;14.53;11.23;;;;;;;2.98;100.00;98791.94;5092018;28;20218;-71
2021/01/24 07:04:21;;;;;;;13.47;10.90;;;;;;;2.98;100.00;98794.59;5078488;28;20182;-71
2021/01/24 07:06:48;;;;;;;11.70;10.43;;;;;;;2.88;100.00;98794.63;5094964;28;20699;-71
2021/01/24 07:09:25;;;;;;;14.53;10.73;;;;;;;2.90;100.00;98805.88;5063086;28;20198;-71
2021/01/24 07:12:00;;;;;;;14.80;11.07;;;;;;;2.88;100.00;98813.38;5077208;28;20299;-71
2021/01/24 07:14:35;;;;;;;13.80;10.97;;;;;;;2.94;100.00;98806.94;5093887;28;20174;-71
2021/01/24 07:17:07;;;;;;;14.13;11.13;;;;;;;2.87;100.00;98811.75;5094833;28;20301;-72
2021/01/24 07:19:53;;;;;;;14.10;10.47;;;;;;;2.87;100.00;98811.75;5094167;28;20186;-71
2021/01/24 07:22:22;;;;;;;13.07;10.50;;;;;;;2.82;100.00;98819.00;5075984;28;20705;-71
2021/01/24 07:24:48;;;;;;;13.60;10.03;;;;;;;2.77;100.00;98827.84;5060326;28;20194;-71
2021/01/24 07:27:21;;;;;;;11.53;9.50;;;;;;;2.81;100.00;98828.13;5076346;28;20320;-71
2021/01/24 07:29:49;;;;;;;14.13;10.50;;;;;;;2.78;100.00;98829.47;5061084;28;20656;-71
2021/01/24 07:32:19;;;;;;;13.97;10.70;;;;;;;2.83;100.00;98832.13;5044772;28;20599;-71
2021/01/24 07:34:52;;;;;;;12.00;10.23;;;;;;;2.72;100.00;98827.84;5062140;28;20270;-71
2021/01/24 07:37:20;;;;;;;14.47;10.40;;;;;;;2.63;100.00;98842.03;5059250;28;20221;-71
2021/01/24 07:39:50;;;;;;;13.17;10.40;;;;;;;2.50;100.00;98847.09;5060209;28;20265;-71
2021/01/24 07:42:16;;;;;;;14.97;10.90;;;;;;;2.65;100.00;98844.44;5059615;28;20308;-71
2021/01/24 07:44:42;;;;;;;14.00;9.90;;;;;;;2.51;100.00;98848.69;5059951;28;20214;-71
2021/01/24 07:47:08;;;;;;;13.70;10.90;;;;;;;2.46;100.00;98846.03;5092737;28;20222;-71
2021/01/24 07:49:37;;;;;;;11.87;10.03;;;;;;;2.63;100.00;98849.28;5061147;28;20186;-71
2021/01/24 07:52:07;;;;;;;11.70;9.33;;;;;;;2.75;100.00;98853.31;5093811;28;20225;-71
2021/01/24 07:54:36;;;;;;;12.70;10.80;;;;;;;2.80;100.00;98859.50;5077366;28;20186;-72
2021/01/24 07:57:04;;;;;;;13.03;10.67;;;;;;;2.80;100.00;98856.81;5060800;28;20607;-71
2021/01/24 07:59:33;;;;;;;15.03;10.93;;;;;;;2.55;100.00;98866.69;5069400;28;20191;-70
2021/01/24 08:02:01;;;;;;;13.97;10.93;;;;;;;2.67;100.00;98872.56;5066514;28;20718;-70
2021/01/24 08:04:26;;;;;;;15.73;10.83;;;;;;;2.84;100.00;98865.94;5086384;28;20286;-70
2021/01/24 08:06:57;;;;;;;15.13;11.10;;;;;;;2.91;100.00;98871.00;5044273;28;20309;-70
2021/01/24 08:09:23;;;;;;;13.20;10.97;;;;;;;3.07;100.00;98871.53;5088766;28;20301;-70
2021/01/24 08:11:49;;;;;;;13.33;10.43;;;;;;;3.18;100.00;98867.00;5038495;28;20302;-70
2021/01/24 08:14:15;;;;;;;14.10;10.70;;;;;;;3.07;100.00;98876.91;5052248;28;20191;-70
2021/01/24 08:16:42;;;;;;;15.30;10.73;;;;;;;3.14;100.00;98876.66;5051768;28;20232;-70
2021/01/24 08:19:09;;;;;;;14.77;10.60;;;;;;;3.27;100.00;98879.59;5052666;28;20242;-70
2021/01/24 08:21:35;;;;;;;13.77;11.27;;;;;;;3.28;100.00;98877.72;5051670;28;20619;-70
2021/01/24 08:24:04;;;;;;;14.00;10.77;;;;;;;3.31;100.00;98883.34;5035881;28;20183;-71
2021/01/24 08:26:29;;;;;;;15.27;11.20;;;;;;;3.35;100.00;98886.28;5070883;28;20722;-71
2021/01/24 08:28:55;;;;;;;13.03;10.70;;;;;;;3.44;100.00;98880.13;5049439;28;20200;-71
2021/01/24 08:31:23;;;;;;;16.43;12.03;;;;;;;3.40;100.00;98886.31;5062742;28;20714;-70
2021/01/24 08:33:50;;;;;;;17.30;13.17;;;;;;;3.45;100.00;98887.09;5018964;28;20202;-71
2021/01/24 08:36:20;;;;;;;16.27;12.87;;;;;;;3.54;100.00;98897.00;5056466;28;20234;-71
2021/01/24 08:38:46;;;;;;;17.37;13.03;;;;;;;3.50;100.00;98893.28;5035310;28;20276;-70
2021/01/24 08:41:12;;;;;;;14.20;11.97;;;;;;;3.55;100.00;98900.50;5059581;28;20686;-70
2021/01/24 08:43:41;;;;;;;12.67;10.50;;;;;;;3.59;100.00;98899.69;5081430;28;20663;-70
2021/01/24 08:46:25;;;;;;;12.17;10.63;;;;;;;3.47;100.00;98899.16;5090203;28;20240;-70
2021/01/24 08:49:02;;;;;;;14.20;10.27;;;;;;;3.59;100.00;98902.38;5055093;28;20618;-71
2021/01/24 08:51:43;;;;;;;13.40;10.90;;;;;;;3.64;100.00;98897.00;5054564;28;20702;-70
2021/01/24 08:54:18;;;;;;;13.30;10.63;;;;;;;3.65;100.00;98912.03;5059149;28;20209;-72
2021/01/24 08:56:44;;;;;;;15.27;11.23;;;;;;;3.67;100.00;98906.41;5074762;28;20336;-71
2021/01/24 08:59:23;;;;;;;14.47;10.70;;;;;;;3.74;99.38;98913.09;5058416;28;20299;-70
2021/01/24 09:01:50;;;;;;;14.03;11.13;;;;;;;3.84;99.29;98911.19;5075094;28;20257;-70
2021/01/24 09:04:26;;;;;;;12.17;10.20;;;;;;;3.77;99.27;98920.59;5085475;28;20177;-70
2021/01/24 09:07:04;;;;;;;18.03;12.43;;;;;;;3.76;98.45;98919.00;5074239;28;20218;-71
2021/01/24 09:09:30;;;;;;;12.30;10.80;;;;;;;3.90;98.14;98928.06;5080766;28;20182;-70
2021/01/24 09:11:56;;;;;;;12.27;9.27;;;;;;;3.88;98.01;98925.69;5060697;28;20890;-70
2021/01/24 09:14:26;;;;;;;12.53;10.07;;;;;;;3.90;97.33;98936.13;5091420;28;20540;-71
2021/01/24 09:17:06;;;;;;;12.10;10.50;;;;;;;4.00;96.50;98934.25;5041776;28;20226;-71
2021/01/24 09:19:35;;;;;;;13.00;10.87;;;;;;;4.10;96.58;98938.78;5075591;28;20205;-71
2021/01/24 09:22:01;;;;;;;10.87;9.30;;;;;;;4.03;96.17;98940.94;5057738;28;20216;-71
2021/01/24 09:24:27;;;;;;;12.90;9.97;;;;;;;4.11;95.93;98943.09;5073753;28;20187;-70
2021/01/24 09:26:52;;;;;;;11.40;9.97;;;;;;;4.14;96.60;98947.91;5041152;28;20279;-71
2021/01/24 09:29:20;;;;;;;10.73;9.63;;;;;;;4.16;96.44;98951.13;5091546;28;20202;-71
2021/01/24 09:31:46;;;;;;;11.03;9.33;;;;;;;4.28;96.09;98950.53;5091121;28;20218;-70
2021/01/24 09:34:12;;;;;;;11.03;9.30;;;;;;;4.39;96.06;98954.81;5036653;28;20182;-71
2021/01/24 09:36:37;;;;;;;10.30;9.20;;;;;;;4.32;95.05;98948.09;5102250;28;20263;-70
2021/01/24 09:39:04;;;;;;;11.20;9.70;;;;;;;4.46;95.21;98947.25;5086289;28;20760;-70
2021/01/24 09:41:31;;;;;;;10.40;9.07;;;;;;;4.40;94.99;98947.56;5064505;28;20241;-70
2021/01/24 09:44:00;;;;;;;11.77;9.60;;;;;;;4.49;94.48;98954.78;5076187;28;20659;-70
2021/01/24 09:46:28;;;;;;;11.10;9.60;;;;;;;4.54;93.97;98956.63;5073645;28;20221;-71
2021/01/24 09:48:54;;;;;;;10.87;9.57;;;;;;;4.54;93.54;98957.44;5074373;28;20205;-69
2021/01/24 09:51:20;;;;;;;13.30;10.13;;;;;;;4.28;94.34;98958.59;5090541;28;20308;-71
2021/01/24 09:53:52;;;;;;;11.40;9.53;;;;;;;4.48;94.52;98960.44;5057431;28;20188;-70
2021/01/24 09:56:22;;;;;;;11.60;9.40;;;;;;;4.62;94.24;98954.19;5069157;28;20292;-70
2021/01/24 09:58:48;;;;;;;10.87;9.63;;;;;;;4.68;93.86;98961.94;5070835;28;20677;-70
2021/01/24 10:01:14;;;;;;;11.57;9.57;;;;;;;4.71;93.84;98965.97;5069987;28;20307;-73
2021/01/24 10:03:40;;;;;;;12.00;9.33;;;;;;;4.83;95.05;98971.81;5054541;28;20175;-75
2021/01/24 10:06:08;;;;;;;10.30;9.03;;;;;;;4.74;93.99;98965.41;5054557;28;20740;-71
2021/01/24 10:08:35;;;;;;;11.60;9.40;;;;;;;4.85;93.22;98961.59;5086458;28;20208;-71
2021/01/24 10:11:04;;;;;;;10.60;9.13;;;;;;;4.92;93.30;98962.09;5067349;28;20249;-73
2021/01/24 10:13:30;;;;;;;10.40;9.30;;;;;;;5.08;93.12;98973.28;5071977;28;20182;-71
2021/01/24 10:15:55;;;;;;;10.10;8.77;;;;;;;4.83;92.74;98980.69;5073907;28;20267;-72
2021/01/24 10:18:24;;;;;;;11.37;9.30;;;;;;;4.79;94.00;98981.53;5083887;28;20251;-71
2021/01/24 10:20:50;;;;;;;10.53;8.30;;;;;;;4.56;92.83;98979.50;5088939;28;20301;-72
2021/01/24 10:23:17;;;;;;;9.43;8.50;;;;;;;4.82;94.17;98983.69;5072729;28;20295;-73
2021/01/24 10:25:43;;;;;;;9.90;8.27;;;;;;;5.03;93.47;98984.06;5068675;28;20789;-71
2021/01/24 10:28:09;;;;;;;9.30;8.13;;;;;;;4.73;92.91;98985.31;5073300;28;20232;-74
2021/01/24 10:30:37;;;;;;;11.05;10.05;;;;;;;5.17;91.58;98986.97;5052746;28;20434;-72
2021/01/24 10:33:03;;;;;;;9.40;8.37;;;;;;;4.80;92.06;98985.81;5070383;28;20185;-72
2021/01/24 10:35:31;;;;;;;9.70;8.50;;;;;;;4.88;92.90;98985.25;5083408;28;20703;-73
2021/01/24 10:38:00;;;;;;;10.37;8.47;;;;;;;4.94;92.75;98986.84;5051380;28;20199;-73
2021/01/24 10:40:28;;;;;;;27.97;20.90;;;;;;;5.02;92.55;98993.25;5080607;28;20186;-72
2021/01/24 10:42:54;;;;;;;9.20;8.20;;;;;;;4.73;94.15;98999.56;5037145;28;20186;-72
2021/01/24 10:45:23;;;;;;;8.50;7.60;;;;;;;4.96;93.65;98992.72;5049692;28;20276;-71
2021/01/24 10:47:48;;;;;;;9.23;8.33;;;;;;;4.83;93.08;98996.03;5069771;28;20687;-71
2021/01/24 10:50:14;;;;;;;8.77;7.87;;;;;;;4.82;94.55;98999.81;5062161;28;20183;-71
2021/01/24 10:52:40;;;;;;;8.13;7.07;;;;;;;4.81;93.94;99003.56;5033815;28;20596;-71
2021/01/24 10:55:06;;;;;;;10.13;8.33;;;;;;;4.88;94.07;99012.16;5062446;28;20206;-72
2021/01/24 10:57:32;;;;;;;8.57;7.50;;;;;;;4.97;93.64;99009.41;5067743;28;20232;-72
2021/01/24 10:59:58;;;;;;;9.17;7.83;;;;;;;5.39;93.25;99012.41;5051618;28;20339;-71
2021/01/24 11:02:23;;;;;;;8.00;7.00;;;;;;;4.92;93.66;99015.88;5048295;28;20242;-72
2021/01/24 11:04:49;;;;;;;7.30;6.50;;;;;;;4.62;96.33;99010.63;5063625;28;20188;-72
2021/01/24 11:07:15;;;;;;;12.10;10.80;;;;;;;4.79;96.60;99016.47;5061128;28;20210;-71
2021/01/24 11:09:44;;;;;;;12.03;10.83;;;;;;;4.57;97.38;99021.41;5049182;28;20183;-71
2021/01/24 11:12:12;;;;;;;7.17;6.47;;;;;;;4.67;97.61;99008.75;5050964;28;20305;-71
2021/01/24 11:14:38;;;;;;;8.67;7.77;;;;;;;4.58;97.97;99010.38;5050694;28;20191;-72
2021/01/24 11:17:04;;;;;;;7.27;6.53;;;;;;;4.70;98.30;99015.44;5050426;28;20234;-74
2021/01/24 11:19:31;;;;;;;7.17;6.40;;;;;;;4.98;96.77;99008.34;5064528;28;20204;-71
2021/01/24 11:21:58;;;;;;;7.00;6.10;;;;;;;4.95;97.82;99020.72;5062846;28;20767;-70
2021/01/24 11:24:24;;;;;;;6.80;6.17;;;;;;;4.74;98.22;99024.56;5063630;28;20563;-71
2021/01/24 11:26:53;;;;;;;7.13;6.27;;;;;;;5.00;98.76;99027.69;5051834;28;20232;-72
2021/01/24 11:29:19;;;;;;;7.20;6.50;;;;;;;5.09;98.23;99023.34;5048939;28;20226;-72